Time;durP1;ratioP1;P1;durP2;ratioP2;P2;SDS_P1;SDS_P2;PMS_P1;PMS_P2;Temp;Humidity;BMP_temperature;BMP_pressure;BME280_temperature;BME280_humidity;BME280_pressure;Samples;Min_cycle;Max_cycle;Signal;HPM_P1;HPM_P2
2022/05/17 00:00:55;;;;;;;11.88;5.47;;;14.40;99.90;;;;;;5026326;28;20037;-76
2022/05/17 00:03:21;;;;;;;9.65;5.13;;;14.30;99.90;;;;;;5005908;28;20127;-74
2022/05/17 00:05:47;;;;;;;15.73;5.80;;;14.30;99.90;;;;;;5008843;28;20017;-75
2022/05/17 00:08:14;;;;;;;10.65;6.10;;;14.10;99.90;;;;;;5028804;28;20037;-75
2022/05/17 00:10:41;;;;;;;14.27;5.50;;;14.00;99.90;;;;;;5030142;28;20037;-75
2022/05/17 00:13:06;;;;;;;9.80;5.60;;;13.90;99.90;;;;;;5030668;28;20057;-75
2022/05/17 00:15:33;;;;;;;10.95;5.60;;;13.80;99.90;;;;;;5010031;28;20064;-77
2022/05/17 00:18:00;;;;;;;14.40;5.85;;;13.80;99.90;;;;;;5027678;28;20037;-76
2022/05/17 00:20:26;;;;;;;12.88;5.55;;;13.80;99.90;;;;;;5027596;28;20394;-75
2022/05/17 00:22:52;;;;;;;13.10;5.97;;;13.70;99.90;;;;;;5008534;28;20037;-76
2022/05/17 00:25:19;;;;;;;13.48;6.13;;;13.70;99.90;;;;;;5028306;28;20025;-72
2022/05/17 00:27:45;;;;;;;13.55;5.80;;;13.60;99.90;;;;;;5011934;28;20044;-76
2022/05/17 00:30:12;;;;;;;13.45;5.55;;;13.60;99.90;;;;;;5027340;28;20045;-75
2022/05/17 00:32:38;;;;;;;14.07;5.63;;;13.60;99.90;;;;;;5011849;28;20033;-75
2022/05/17 00:35:04;;;;;;;11.25;5.40;;;13.50;99.90;;;;;;5030301;28;20033;-76
2022/05/17 00:37:30;;;;;;;12.38;5.43;;;13.40;99.90;;;;;;5030387;28;20068;-74
2022/05/17 00:39:56;;;;;;;9.50;5.30;;;13.30;99.90;;;;;;5028892;28;20088;-74
2022/05/17 00:42:21;;;;;;;10.68;4.80;;;13.20;99.90;;;;;;5027221;28;20032;-75
2022/05/17 00:44:47;;;;;;;11.55;4.68;;;13.20;99.90;;;;;;5025092;28;20545;-76
2022/05/17 00:47:13;;;;;;;9.68;4.95;;;13.10;99.90;;;;;;5027546;28;20037;-75
2022/05/17 00:49:59;;;;;;;13.02;5.20;;;13.10;99.90;;;;;;5031137;28;20112;-75
2022/05/17 00:52:30;;;;;;;9.48;4.97;;;13.00;99.90;;;;;;5030869;28;20033;-76
2022/05/17 00:55:06;;;;;;;11.35;5.20;;;13.00;99.90;;;;;;5029987;28;20052;-75
2022/05/17 00:57:38;;;;;;;9.98;4.85;;;12.90;99.90;;;;;;5029265;28;20045;-74
2022/05/17 01:00:07;;;;;;;10.60;5.22;;;12.90;99.90;;;;;;5031117;28;20121;-77
2022/05/17 01:02:33;;;;;;;11.38;5.32;;;12.90;99.90;;;;;;5011260;28;20033;-73
2022/05/17 01:05:01;;;;;;;12.55;5.70;;;12.90;99.90;;;;;;5015591;28;20079;-76
2022/05/17 01:07:36;;;;;;;19.73;6.43;;;12.90;99.90;;;;;;5011811;28;20060;-75
2022/05/17 01:10:02;;;;;;;12.95;5.97;;;12.90;99.90;;;;;;5031455;28;20045;-74
2022/05/17 01:12:28;;;;;;;15.98;7.10;;;12.90;99.90;;;;;;5030406;28;20069;-76
2022/05/17 01:14:57;;;;;;;19.52;6.05;;;12.90;99.90;;;;;;5030809;28;20128;-75
2022/05/17 01:17:23;;;;;;;11.75;6.32;;;12.90;99.90;;;;;;5029578;28;20120;-76
2022/05/17 01:19:49;;;;;;;12.25;5.72;;;12.80;99.90;;;;;;5028977;28;20064;-76
2022/05/17 01:22:15;;;;;;;13.80;5.63;;;12.70;99.90;;;;;;5028681;28;20049;-75
2022/05/17 01:24:41;;;;;;;11.75;5.63;;;12.70;99.90;;;;;;5029792;28;20037;-75
2022/05/17 01:27:14;;;;;;;11.93;6.22;;;12.70;99.90;;;;;;5030379;28;20462;-75
2022/05/17 01:29:42;;;;;;;9.40;5.20;;;12.70;99.90;;;;;;5029349;28;20091;-75
2022/05/17 01:32:10;;;;;;;9.70;5.32;;;12.60;99.90;;;;;;5030080;28;20087;-74
2022/05/17 01:34:36;;;;;;;11.57;5.55;;;12.60;99.90;;;;;;5029372;28;20029;-76
2022/05/17 01:37:04;;;;;;;12.88;6.03;;;12.60;99.90;;;;;;5028854;28;20072;-76
2022/05/17 01:39:31;;;;;;;15.88;6.22;;;12.60;99.90;;;;;;5029298;28;20045;-76
2022/05/17 01:41:56;;;;;;;14.70;5.97;;;12.60;99.90;;;;;;5029499;28;20083;-74
2022/05/17 01:44:23;;;;;;;14.35;6.38;;;12.60;99.90;;;;;;5029965;28;20038;-75
2022/05/17 01:46:49;;;;;;;13.63;6.70;;;12.70;99.90;;;;;;5036909;28;20104;-76
2022/05/17 01:49:14;;;;;;;15.55;6.40;;;12.70;99.90;;;;;;5033707;28;20343;-75
2022/05/17 01:51:40;;;;;;;11.43;6.03;;;12.80;99.90;;;;;;5028909;28;20083;-76
2022/05/17 01:54:06;;;;;;;18.40;6.25;;;12.70;99.90;;;;;;5029061;28;20033;-76
2022/05/17 01:56:33;;;;;;;13.60;6.63;;;12.70;99.90;;;;;;5028624;28;20101;-74
2022/05/17 01:58:59;;;;;;;15.10;7.28;;;12.80;99.90;;;;;;5021146;28;20037;-77
2022/05/17 02:01:25;;;;;;;17.92;7.22;;;12.80;99.90;;;;;;5028881;28;20079;-75
2022/05/17 02:03:51;;;;;;;17.23;7.63;;;13.00;99.90;;;;;;5029704;28;20037;-75
2022/05/17 02:06:18;;;;;;;15.90;6.32;;;13.00;99.90;;;;;;5029394;28;20032;-75
2022/05/17 02:08:44;;;;;;;19.30;6.85;;;13.10;99.90;;;;;;5028740;28;20049;-76
2022/05/17 02:11:09;;;;;;;12.48;6.13;;;13.10;99.90;;;;;;5027072;28;20522;-75
2022/05/17 02:13:38;;;;;;;12.18;5.93;;;13.10;99.90;;;;;;5026990;28;20108;-74
2022/05/17 02:16:05;;;;;;;12.65;5.63;;;13.10;99.90;;;;;;5027646;28;20030;-75
2022/05/17 02:18:31;;;;;;;8.70;4.30;;;13.00;99.90;;;;;;5024512;28;20044;-76
2022/05/17 02:20:56;;;;;;;9.10;4.40;;;12.90;99.90;;;;;;5026219;28;20027;-75
2022/05/17 02:23:22;;;;;;;10.68;4.20;;;12.70;99.90;;;;;;5025388;28;20033;-73
2022/05/17 02:25:48;;;;;;;10.10;4.40;;;12.60;99.90;;;;;;5028188;28;20029;-75
2022/05/17 02:28:14;;;;;;;6.72;4.00;;;12.50;99.90;;;;;;5030581;28;20038;-76
2022/05/17 02:30:41;;;;;;;11.35;4.57;;;12.40;99.90;;;;;;5025935;28;20481;-74
2022/05/17 02:33:08;;;;;;;9.40;4.03;;;12.20;99.90;;;;;;5023437;28;20611;-75
2022/05/17 02:35:34;;;;;;;12.82;4.10;;;12.10;99.90;;;;;;5023784;28;20124;-73
2022/05/17 02:38:00;;;;;;;9.85;4.03;;;12.00;99.90;;;;;;5026399;28;20128;-75
2022/05/17 02:40:25;;;;;;;13.30;4.70;;;12.00;99.90;;;;;;5028576;28;20457;-75
2022/05/17 02:42:51;;;;;;;9.27;4.50;;;12.00;99.90;;;;;;5028125;28;20048;-76
2022/05/17 02:45:17;;;;;;;7.78;4.07;;;12.00;99.90;;;;;;5027941;28;20033;-74
2022/05/17 02:47:43;;;;;;;9.38;4.32;;;12.00;99.90;;;;;;5025453;28;20033;-76
2022/05/17 02:50:09;;;;;;;11.43;4.93;;;12.00;99.90;;;;;;5011733;28;20034;-75
2022/05/17 02:52:36;;;;;;;5.85;4.03;;;12.00;99.90;;;;;;5028377;28;20030;-73
2022/05/17 02:55:02;;;;;;;9.63;4.55;;;12.00;99.90;;;;;;5024557;28;20029;-76
2022/05/17 02:57:28;;;;;;;7.85;4.80;;;12.00;99.90;;;;;;5027630;28;20509;-77
2022/05/17 02:59:53;;;;;;;7.38;4.65;;;12.00;99.90;;;;;;5028177;28;20033;-75
2022/05/17 03:02:19;;;;;;;8.43;4.90;;;12.00;99.90;;;;;;5029626;28;20360;-74
2022/05/17 03:04:45;;;;;;;11.38;5.57;;;12.10;99.90;;;;;;5028728;28;20124;-77
2022/05/17 03:07:11;;;;;;;7.30;4.65;;;12.20;99.90;;;;;;5029307;28;20037;-75
2022/05/17 03:09:36;;;;;;;7.38;4.47;;;12.30;99.90;;;;;;5027925;28;20493;-72
2022/05/17 03:12:02;;;;;;;9.20;4.90;;;12.20;99.90;;;;;;5029228;28;20064;-74
2022/05/17 03:14:28;;;;;;;6.53;4.03;;;12.20;99.90;;;;;;5028504;28;20021;-75
2022/05/17 03:16:54;;;;;;;8.02;4.80;;;12.10;99.90;;;;;;5028561;28;20064;-75
2022/05/17 03:19:20;;;;;;;8.50;4.38;;;12.00;99.90;;;;;;5029421;28;20079;-77
2022/05/17 03:21:47;;;;;;;8.63;4.97;;;11.90;99.90;;;;;;5028686;28;20116;-76
2022/05/17 03:24:13;;;;;;;8.23;4.60;;;11.90;99.90;;;;;;5029225;28;20029;-76
2022/05/17 03:26:40;;;;;;;11.18;5.20;;;11.80;99.90;;;;;;5028994;28;20030;-74
2022/05/17 03:29:07;;;;;;;7.32;4.45;;;11.90;99.90;;;;;;5028440;28;20030;-75
2022/05/17 03:31:35;;;;;;;10.85;4.70;;;11.90;99.90;;;;;;5029627;28;20061;-76
2022/05/17 03:34:00;;;;;;;6.93;4.15;;;11.80;99.90;;;;;;5028510;28;20021;-75
2022/05/17 03:36:26;;;;;;;9.13;4.80;;;11.70;99.90;;;;;;5029274;28;20044;-77
2022/05/17 03:38:52;;;;;;;8.10;4.80;;;11.70;99.90;;;;;;5027364;28;20252;-77
2022/05/17 03:41:17;;;;;;;9.77;4.70;;;11.70;99.90;;;;;;5029794;28;20433;-76
2022/05/17 03:43:43;;;;;;;7.80;4.55;;;11.70;99.90;;;;;;5032453;28;20033;-75
2022/05/17 03:46:09;;;;;;;10.32;4.55;;;11.60;99.90;;;;;;5033190;28;20466;-76
2022/05/17 03:48:35;;;;;;;6.82;4.30;;;11.60;99.90;;;;;;5033198;28;20100;-75
2022/05/17 03:51:01;;;;;;;8.30;4.95;;;11.60;99.90;;;;;;5031564;28;20673;-76
2022/05/17 03:53:27;;;;;;;7.30;4.80;;;11.60;99.90;;;;;;5033153;28;20040;-76
2022/05/17 03:55:53;;;;;;;9.20;4.88;;;11.70;99.90;;;;;;5032245;28;20072;-75
2022/05/17 03:58:18;;;;;;;8.57;4.47;;;11.60;99.90;;;;;;5032685;28;20415;-76
2022/05/17 04:00:44;;;;;;;9.57;4.70;;;11.60;99.90;;;;;;5031993;28;20478;-74
2022/05/17 04:03:10;;;;;;;7.45;4.65;;;11.50;99.90;;;;;;5032970;28;20428;-76
2022/05/17 04:05:35;;;;;;;6.57;4.30;;;11.50;99.90;;;;;;5031265;28;20042;-75
2022/05/17 04:08:01;;;;;;;8.52;4.30;;;11.50;99.90;;;;;;5031566;28;20061;-76
2022/05/17 04:10:27;;;;;;;8.75;4.68;;;11.60;99.90;;;;;;5032773;28;20041;-76
2022/05/17 04:12:52;;;;;;;9.52;4.40;;;11.60;99.90;;;;;;5031979;28;20402;-77
2022/05/17 04:15:21;;;;;;;8.35;4.55;;;11.60;99.90;;;;;;5032639;28;20397;-76
2022/05/17 04:17:47;;;;;;;7.18;4.65;;;11.70;99.90;;;;;;5031801;28;20046;-77
2022/05/17 04:20:15;;;;;;;6.88;4.03;;;11.80;99.90;;;;;;5031666;28;20037;-75
2022/05/17 04:22:48;;;;;;;7.78;4.80;;;11.90;99.90;;;;;;5032617;28;20029;-75
2022/05/17 04:25:16;;;;;;;8.35;4.45;;;12.00;99.90;;;;;;5032538;28;20037;-75
2022/05/17 04:27:43;;;;;;;7.85;3.97;;;12.10;99.90;;;;;;5032409;28;20040;-74
2022/05/17 04:30:10;;;;;;;7.95;4.63;;;12.20;99.90;;;;;;5032120;28;20025;-76
2022/05/17 04:32:35;;;;;;;7.60;4.25;;;12.20;99.90;;;;;;5032375;28;20022;-77
2022/05/17 04:35:01;;;;;;;6.93;4.10;;;12.30;99.90;;;;;;5030406;28;20029;-77
2022/05/17 04:37:28;;;;;;;7.28;3.60;;;12.50;99.90;;;;;;5031838;28;20037;-77
2022/05/17 04:39:54;;;;;;;5.13;3.58;;;12.60;99.90;;;;;;5030312;28;20060;-75
2022/05/17 04:42:19;;;;;;;5.32;3.55;;;12.80;99.90;;;;;;5032174;28;20025;-76
2022/05/17 04:44:45;;;;;;;10.43;3.83;;;12.80;99.90;;;;;;5031264;28;20025;-73
2022/05/17 04:47:10;;;;;;;5.55;3.75;;;12.70;99.90;;;;;;5032020;28;20061;-77
2022/05/17 04:49:37;;;;;;;6.47;3.90;;;12.60;99.90;;;;;;5029781;28;20025;-76
2022/05/17 04:52:03;;;;;;;8.23;3.95;;;12.60;99.90;;;;;;5031283;28;20090;-75
2022/05/17 04:54:29;;;;;;;6.13;3.83;;;12.70;99.90;;;;;;5030130;28;20068;-75
2022/05/17 04:56:55;;;;;;;8.00;3.88;;;12.90;99.90;;;;;;5030217;28;20084;-76
2022/05/17 04:59:21;;;;;;;8.50;4.00;;;13.10;99.90;;;;;;5031946;28;20029;-76
2022/05/17 05:01:47;;;;;;;7.28;3.85;;;13.30;99.90;;;;;;5031079;28;20399;-74
2022/05/17 05:04:13;;;;;;;8.00;4.00;;;13.50;99.90;;;;;;5013659;28;20123;-75
2022/05/17 05:06:38;;;;;;;5.80;3.75;;;13.60;99.90;;;;;;5031958;28;20104;-76
2022/05/17 05:09:04;;;;;;;10.15;4.53;;;13.70;99.90;;;;;;5031241;28;20528;-76
2022/05/17 05:11:30;;;;;;;9.48;4.68;;;13.80;99.90;;;;;;5030211;28;20480;-76
2022/05/17 05:13:55;;;;;;;8.38;4.80;;;13.80;99.90;;;;;;5030539;28;20481;-77
2022/05/17 05:16:21;;;;;;;11.95;4.90;;;13.90;99.90;;;;;;5031635;28;20057;-77
2022/05/17 05:18:46;;;;;;;11.85;4.95;;;14.10;99.90;;;;;;5030896;28;20117;-74
2022/05/17 05:21:14;;;;;;;10.48;5.28;;;14.40;99.90;;;;;;5031441;28;20061;-76
2022/05/17 05:23:42;;;;;;;18.45;4.57;;;14.60;99.90;;;;;;5029308;28;20502;-74
2022/05/17 05:26:10;;;;;;;8.75;4.25;;;14.70;99.90;;;;;;5030637;28;20025;-75
2022/05/17 05:28:36;;;;;;;9.32;4.53;;;14.90;99.90;;;;;;5031286;28;20030;-75
2022/05/17 05:31:03;;;;;;;7.38;3.97;;;15.00;99.90;;;;;;5012757;28;20033;-74
2022/05/17 05:33:31;;;;;;;7.63;4.15;;;15.10;99.90;;;;;;5031197;28;20029;-75
2022/05/17 05:35:57;;;;;;;10.63;5.50;;;15.20;99.90;;;;;;5028513;28;20040;-75
2022/05/17 05:38:23;;;;;;;7.85;4.60;;;15.20;99.90;;;;;;5030371;28;20042;-77
2022/05/17 05:40:49;;;;;;;10.80;5.28;;;15.30;99.90;;;;;;5030312;28;20029;-72
2022/05/17 05:43:15;;;;;;;11.88;5.53;;;15.40;99.90;;;;;;5029026;28;20079;-75
2022/05/17 05:45:41;;;;;;;11.02;5.03;;;15.50;99.90;;;;;;5029949;28;20540;-75
2022/05/17 05:48:07;;;;;;;9.93;5.60;;;15.60;99.90;;;;;;5029033;28;20056;-76
2022/05/17 05:50:34;;;;;;;9.68;5.43;;;15.60;99.90;;;;;;5030953;28;20065;-75
2022/05/17 05:53:09;;;;;;;12.85;6.07;;;15.60;99.90;;;;;;5012174;28;20465;-74
2022/05/17 05:55:35;;;;;;;14.05;5.95;;;15.60;99.90;;;;;;5030882;28;20036;-76
2022/05/17 05:58:02;;;;;;;10.18;5.75;;;15.80;99.90;;;;;;5029775;28;20112;-76
2022/05/17 06:00:28;;;;;;;14.07;6.80;;;15.90;99.90;;;;;;5030707;28;20037;-75
2022/05/17 06:02:55;;;;;;;13.13;6.28;;;16.00;99.90;;;;;;5028881;28;20037;-76
2022/05/17 06:05:23;;;;;;;17.13;7.50;;;16.00;99.90;;;;;;5030533;28;20026;-76
2022/05/17 06:07:49;;;;;;;12.52;7.18;;;16.10;99.90;;;;;;5029814;28;20124;-73
2022/05/17 06:10:16;;;;;;;11.57;6.85;;;16.20;99.90;;;;;;5030506;28;20037;-75
2022/05/17 06:12:42;;;;;;;14.77;7.10;;;16.30;99.90;;;;;;5028595;28;20101;-76
2022/05/17 06:15:09;;;;;;;11.50;6.72;;;16.40;99.90;;;;;;5029694;28;20105;-76
2022/05/17 06:17:36;;;;;;;14.48;7.53;;;16.50;99.90;;;;;;5012541;28;20041;-75
2022/05/17 06:20:03;;;;;;;14.57;7.13;;;16.60;99.90;;;;;;5029599;28;20060;-76
2022/05/17 06:22:29;;;;;;;18.00;8.38;;;16.70;99.90;;;;;;5011603;28;20051;-77
2022/05/17 06:24:55;;;;;;;18.65;7.55;;;16.80;99.90;;;;;;5029539;28;20347;-76
2022/05/17 06:27:20;;;;;;;15.77;6.90;;;16.90;99.90;;;;;;5012429;28;20083;-74
2022/05/17 06:29:46;;;;;;;16.70;6.95;;;17.00;99.90;;;;;;5012381;28;20033;-76
2022/05/17 06:32:14;;;;;;;15.05;7.28;;;17.20;99.90;;;;;;5028637;28;20034;-75
2022/05/17 06:34:41;;;;;;;19.10;7.82;;;17.30;99.90;;;;;;5028114;28;20032;-73
2022/05/17 06:37:08;;;;;;;13.23;6.68;;;17.40;99.90;;;;;;5029297;28;20080;-74
2022/05/17 06:39:34;;;;;;;11.45;6.45;;;17.50;99.90;;;;;;5029821;28;20060;-74
2022/05/17 06:42:00;;;;;;;17.88;7.05;;;17.60;99.90;;;;;;5029243;28;20450;-75
2022/05/17 06:44:26;;;;;;;12.63;6.63;;;17.70;99.90;;;;;;5029773;28;20051;-74
2022/05/17 06:46:54;;;;;;;13.05;7.40;;;17.80;99.90;;;;;;5029170;28;20116;-74
2022/05/17 06:49:20;;;;;;;14.70;7.70;;;17.90;99.90;;;;;;5028243;28;20041;-76
2022/05/17 06:51:46;;;;;;;13.10;7.65;;;18.00;99.90;;;;;;5028821;28;20674;-75
2022/05/17 06:54:13;;;;;;;16.05;7.28;;;18.10;99.90;;;;;;5029009;28;20032;-75
2022/05/17 06:56:39;;;;;;;16.52;7.30;;;18.10;99.90;;;;;;5029952;28;20029;-74
2022/05/17 06:59:05;;;;;;;16.08;7.88;;;18.20;99.90;;;;;;5028611;28;20397;-76
2022/05/17 07:01:30;;;;;;;14.10;8.35;;;18.30;99.90;;;;;;5029586;28;20064;-74
2022/05/17 07:03:57;;;;;;;14.65;7.90;;;18.50;99.90;;;;;;5029199;28;20037;-76
2022/05/17 07:06:23;;;;;;;15.73;8.05;;;18.50;99.90;;;;;;5028468;28;20486;-76
2022/05/17 07:08:48;;;;;;;14.10;7.50;;;18.50;99.90;;;;;;5029535;28;20120;-74
2022/05/17 07:13:58;;;;;;;12.85;7.38;;;18.70;99.90;;;;;;5028048;28;20059;-76
2022/05/17 07:16:25;;;;;;;15.38;7.47;;;18.80;99.90;;;;;;5011396;28;20052;-76
2022/05/17 07:18:51;;;;;;;17.05;7.40;;;18.90;99.90;;;;;;5029231;28;20029;-73
2022/05/17 07:21:17;;;;;;;15.32;7.60;;;18.90;99.90;;;;;;5028062;28;20449;-74
2022/05/17 07:23:43;;;;;;;13.23;7.30;;;19.20;99.90;;;;;;5029297;28;20061;-76
2022/05/17 07:26:10;;;;;;;10.98;7.07;;;19.30;99.90;;;;;;5028624;28;20455;-75
2022/05/17 07:28:44;;;;;;;22.67;8.50;;;19.50;99.90;;;;;;5011652;28;20481;-75
2022/05/17 07:31:11;;;;;;;14.10;6.60;;;19.60;99.90;;;;;;5028318;28;20036;-74
2022/05/17 07:33:38;;;;;;;16.98;7.43;;;19.70;99.90;;;;;;5029303;28;20095;-74
2022/05/17 07:36:06;;;;;;;11.85;7.20;;;19.70;99.90;;;;;;5027505;28;20150;-76
2022/05/17 07:38:32;;;;;;;12.93;6.57;;;19.70;99.90;;;;;;5028228;28;20061;-75
2022/05/17 07:40:58;;;;;;;11.57;6.50;;;19.80;99.90;;;;;;5028200;28;20478;-75
2022/05/17 07:43:23;;;;;;;13.73;6.50;;;19.90;99.90;;;;;;5029275;28;20110;-76
2022/05/17 07:45:52;;;;;;;17.17;6.00;;;20.00;99.90;;;;;;5029166;28;20037;-77
2022/05/17 07:48:20;;;;;;;12.13;6.40;;;20.20;99.90;;;;;;5028683;28;20037;-74
2022/05/17 07:50:46;;;;;;;11.30;5.78;;;20.30;99.90;;;;;;5011659;28;20116;-76
2022/05/17 07:53:14;;;;;;;15.80;6.20;;;20.20;99.90;;;;;;5027304;28;20886;-75
2022/05/17 07:55:42;;;;;;;13.15;5.68;;;20.30;99.90;;;;;;5029163;28;20458;-75
2022/05/17 07:58:09;;;;;;;11.32;5.80;;;20.50;99.90;;;;;;5028233;28;20033;-74
2022/05/17 08:00:36;;;;;;;14.40;5.88;;;20.60;99.90;;;;;;5029212;28;20029;-75
2022/05/17 08:03:04;;;;;;;15.70;5.72;;;20.70;99.90;;;;;;5028269;28;20034;-74
2022/05/17 08:05:30;;;;;;;13.70;5.35;;;20.70;99.90;;;;;;5028084;28;20033;-75
2022/05/17 08:07:56;;;;;;;8.57;4.63;;;20.90;99.90;;;;;;5028821;28;20033;-74
2022/05/17 08:10:22;;;;;;;12.48;5.75;;;21.00;99.90;;;;;;5028708;28;20386;-76
2022/05/17 08:12:48;;;;;;;8.35;5.00;;;21.20;99.90;;;;;;5028443;28;20061;-75
2022/05/17 08:15:15;;;;;;;11.25;5.05;;;21.30;99.90;;;;;;5028075;28;20605;-75
2022/05/17 08:17:41;;;;;;;11.57;5.35;;;21.20;99.90;;;;;;5028131;28;20116;-74
2022/05/17 08:20:09;;;;;;;10.60;6.07;;;21.10;99.90;;;;;;5028196;28;20179;-73
2022/05/17 08:22:39;;;;;;;12.55;5.65;;;21.00;99.90;;;;;;5027898;28;20405;-76
2022/05/17 08:27:50;;;;;;;10.25;5.80;;;20.80;99.90;;;;;;5028678;28;20413;-75
2022/05/17 08:30:20;;;;;;;12.63;5.90;;;20.90;99.90;;;;;;5031788;28;20025;-74
2022/05/17 08:35:34;;;;;;;11.23;6.20;;;21.30;99.90;;;;;;5031440;28;20064;-76
2022/05/17 08:38:00;;;;;;;10.95;5.72;;;21.10;99.90;;;;;;5030457;28;20441;-76
2022/05/17 08:40:28;;;;;;;12.02;5.57;;;21.30;99.90;;;;;;5032193;28;20057;-74
2022/05/17 08:43:26;;;;;;;9.82;4.78;;;21.60;99.90;;;;;;5032232;28;20132;-77
2022/05/17 08:46:12;;;;;;;12.23;5.32;;;21.60;99.90;;;;;;5032228;28;20037;-74
2022/05/17 08:49:18;;;;;;;12.07;5.40;;;21.90;99.90;;;;;;5031926;28;20037;-75
2022/05/17 08:51:48;;;;;;;12.60;5.90;;;22.10;99.90;;;;;;5031322;28;20029;-76
2022/05/17 08:54:16;;;;;;;8.43;5.25;;;21.70;99.90;;;;;;5031129;28;20025;-76
2022/05/17 08:56:51;;;;;;;10.45;5.60;;;21.50;99.90;;;;;;5031717;28;20029;-75
2022/05/17 08:59:22;;;;;;;14.50;5.85;;;21.70;99.90;;;;;;5031493;28;20045;-76
2022/05/17 09:02:02;;;;;;;10.80;4.90;;;21.80;99.90;;;;;;5031888;28;20021;-74
2022/05/17 09:04:34;;;;;;;12.60;5.13;;;22.00;99.90;;;;;;5013972;28;20033;-77
2022/05/17 09:07:25;;;;;;;9.32;4.75;;;22.20;99.90;;;;;;5030298;28;20289;-74
2022/05/17 09:10:22;;;;;;;8.90;5.15;;;22.30;99.90;;;;;;5031687;28;20025;-76
2022/05/17 09:13:10;;;;;;;11.93;5.13;;;22.70;99.90;;;;;;5013785;28;20075;-74
2022/05/17 09:15:36;;;;;;;13.38;4.90;;;22.80;99.90;;;;;;5031662;28;20032;-76
2022/05/17 09:18:07;;;;;;;17.20;5.95;;;23.00;99.90;;;;;;5030673;28;20042;-74
2022/05/17 09:20:36;;;;;;;10.05;5.35;;;23.10;99.90;;;;;;5030776;28;20033;-75
2022/05/17 09:23:02;;;;;;;9.20;5.25;;;23.20;99.90;;;;;;5030366;28;20033;-73
2022/05/17 09:25:49;;;;;;;10.65;4.70;;;23.30;99.90;;;;;;5011867;28;20037;-74
2022/05/17 09:28:21;;;;;;;9.80;5.20;;;23.50;99.90;;;;;;5010703;28;20510;-75
2022/05/17 09:30:47;;;;;;;7.57;4.68;;;23.50;99.90;;;;;;5027523;28;20029;-74
2022/05/17 09:33:19;;;;;;;12.15;4.40;;;23.30;99.90;;;;;;5030556;28;20036;-76
2022/05/17 09:36:00;;;;;;;9.15;4.82;;;22.90;99.90;;;;;;5031231;28;20025;-76
2022/05/17 09:38:30;;;;;;;12.15;5.35;;;22.70;99.90;;;;;;5030554;28;20041;-77
2022/05/17 09:40:57;;;;;;;11.50;5.38;;;22.30;99.90;;;;;;5030219;28;20040;-74
2022/05/17 09:43:49;;;;;;;11.45;4.80;;;21.80;99.90;;;;;;5029624;28;20218;-75
2022/05/17 09:46:28;;;;;;;13.32;5.07;;;21.70;99.90;;;;;;5012484;28;20103;-76
2022/05/17 09:54:47;;;;;;;6.00;4.03;;;22.60;99.90;;;;;;5030968;28;20109;-74
2022/05/17 09:57:30;;;;;;;6.53;3.95;;;22.60;99.90;;;;;;5029198;28;20040;-77
2022/05/17 10:00:12;;;;;;;7.70;3.80;;;22.60;99.90;;;;;;5030919;28;20576;-76
2022/05/17 10:03:00;;;;;;;7.53;2.70;;;22.80;99.90;;;;;;5029692;28;20061;-76
2022/05/17 10:05:40;;;;;;;5.43;2.00;;;23.20;99.90;;;;;;5028975;28;20029;-75
2022/05/17 10:08:29;;;;;;;3.70;2.00;;;23.20;99.40;;;;;;5029956;28;20030;-75
2022/05/17 10:11:17;;;;;;;5.50;2.55;;;23.20;98.60;;;;;;5013838;28;20277;-76
2022/05/17 10:13:45;;;;;;;8.27;2.15;;;23.30;99.90;;;;;;5030590;28;20044;-75
2022/05/17 10:16:25;;;;;;;6.40;2.75;;;23.10;99.90;;;;;;5029684;28;20545;-74
2022/05/17 10:18:58;;;;;;;6.18;2.30;;;23.20;99.90;;;;;;5030144;28;20791;-75
2022/05/17 10:21:34;;;;;;;6.90;2.15;;;23.60;99.10;;;;;;5027013;28;20033;-76
2022/05/17 10:24:14;;;;;;;4.90;2.40;;;23.60;99.90;;;;;;5030047;28;20500;-75
2022/05/17 10:26:46;;;;;;;7.13;2.25;;;23.80;99.90;;;;;;5030273;28;20564;-75
2022/05/17 10:29:37;;;;;;;5.55;2.10;;;24.20;99.90;;;;;;5029381;28;20037;-74
2022/05/17 10:32:30;;;;;;;3.38;1.75;;;24.60;96.70;;;;;;5029924;28;20044;-73
2022/05/17 10:34:59;;;;;;;4.47;1.50;;;24.40;90.60;;;;;;5018996;28;20037;-77
2022/05/17 10:37:41;;;;;;;4.05;2.17;;;24.30;93.20;;;;;;5027704;28;20029;-76
2022/05/17 10:40:14;;;;;;;4.18;2.03;;;24.40;93.10;;;;;;5029261;28;20049;-74
2022/05/17 10:42:42;;;;;;;7.13;2.38;;;24.40;95.10;;;;;;5030273;28;20030;-75
2022/05/17 10:45:16;;;;;;;2.92;2.13;;;24.80;95.00;;;;;;5029441;28;20109;-76
2022/05/17 10:47:49;;;;;;;5.45;2.80;;;25.20;96.50;;;;;;5029985;28;20034;-75
2022/05/17 10:50:24;;;;;;;10.95;2.83;;;25.60;92.80;;;;;;5028676;28;20124;-75
2022/05/17 10:53:14;;;;;;;8.48;2.40;;;25.60;96.10;;;;;;5027114;28;20397;-74
2022/05/17 10:56:16;;;;;;;5.03;2.87;;;26.10;93.60;;;;;;5027971;28;20111;-74
2022/05/17 10:58:58;;;;;;;6.38;2.63;;;26.10;89.60;;;;;;5010002;28;20041;-74
2022/05/17 11:01:46;;;;;;;6.38;2.50;;;25.80;93.40;;;;;;5009321;28;20030;-75
2022/05/17 11:04:33;;;;;;;6.80;3.13;;;26.10;91.60;;;;;;5009141;28;20140;-75
2022/05/17 11:07:21;;;;;;;7.45;2.78;;;26.10;88.10;;;;;;5009601;28;20758;-75
2022/05/17 11:10:07;;;;;;;8.10;2.08;;;25.90;89.20;;;;;;5009872;28;20038;-76
2022/05/17 11:12:43;;;;;;;7.57;2.25;;;26.20;84.60;;;;;;5009834;28;20025;-76
2022/05/17 11:15:18;;;;;;;4.05;2.20;;;26.30;80.80;;;;;;5008718;28;20505;-73
2022/05/17 11:17:58;;;;;;;4.30;2.58;;;25.90;85.70;;;;;;5021299;28;20033;-75
2022/05/17 11:20:33;;;;;;;;;;;25.80;86.80;;;;;;5029207;28;20033;-75
2022/05/17 11:23:31;;;;;;;5.72;2.60;;;25.80;83.60;;;;;;5029580;28;19905;-74
2022/05/17 11:26:08;;;;;;;7.60;2.80;;;25.60;86.00;;;;;;5028142;28;20564;-76
2022/05/17 11:28:44;;;;;;;5.40;2.67;;;25.60;87.70;;;;;;5029393;28;20055;-76
2022/05/17 11:31:28;;;;;;;6.18;2.67;;;25.70;83.80;;;;;;5028565;28;20022;-73
2022/05/17 11:34:23;;;;;;;5.75;2.60;;;25.70;83.20;;;;;;5029279;28;20026;-75
2022/05/17 11:36:51;;;;;;;7.13;2.92;;;26.10;86.40;;;;;;5029295;28;20033;-74
2022/05/17 11:39:31;;;;;;;5.95;2.50;;;26.00;80.10;;;;;;5026589;28;20379;-74
2022/05/17 11:42:27;;;;;;;7.57;2.80;;;25.90;87.90;;;;;;5029277;28;20030;-76
2022/05/17 11:44:52;;;;;;;6.22;2.42;;;25.60;84.60;;;;;;5028996;28;20760;-75
2022/05/17 11:47:53;;;;;;;7.28;2.40;;;25.60;84.40;;;;;;5028426;28;20072;-75
2022/05/17 11:50:42;;;;;;;3.65;2.53;;;25.80;80.10;;;;;;5014781;28;20072;-74
2022/05/17 11:53:46;;;;;;;7.10;2.38;;;26.00;83.30;;;;;;5028856;28;20025;-74
2022/05/17 11:56:24;;;;;;;8.43;2.40;;;26.20;77.40;;;;;;5012325;28;20077;-73
2022/05/17 11:59:12;;;;;;;6.63;2.40;;;26.30;77.50;;;;;;5011240;28;20034;-74
2022/05/17 12:01:37;;;;;;;3.20;1.90;;;26.00;78.00;;;;;;5029110;28;20038;-74
2022/05/17 12:04:21;;;;;;;4.88;1.90;;;26.30;72.50;;;;;;5032369;28;20052;-76
2022/05/17 12:06:52;;;;;;;3.72;2.33;;;26.30;70.20;;;;;;5032732;28;20029;-75
2022/05/17 12:09:20;;;;;;;3.10;2.10;;;26.30;73.00;;;;;;5031370;28;20120;-75
2022/05/17 12:12:09;;;;;;;4.50;2.10;;;26.50;75.00;;;;;;5032860;28;20120;-76
2022/05/17 12:15:09;;;;;;;5.70;2.22;;;26.30;72.20;;;;;;5032149;28;20112;-76
2022/05/17 12:17:49;;;;;;;5.00;2.10;;;26.50;74.90;;;;;;5032299;28;20045;-74
2022/05/17 12:20:34;;;;;;;4.43;2.20;;;26.40;73.70;;;;;;5031859;28;20033;-76
2022/05/17 12:23:05;;;;;;;2.38;1.63;;;26.60;73.00;;;;;;5032440;28;20041;-75
2022/05/17 12:25:58;;;;;;;6.10;2.30;;;26.40;67.90;;;;;;5030846;28;20535;-75
2022/05/17 12:28:31;;;;;;;4.03;2.30;;;26.20;71.90;;;;;;5031615;28;20128;-75
2022/05/17 12:31:01;;;;;;;9.45;2.53;;;26.00;69.90;;;;;;5032449;28;20033;-74
2022/05/17 12:33:29;;;;;;;;;;;25.80;72.50;;;;;;5032399;28;20037;-75
2022/05/17 12:36:13;;;;;;;7.20;2.60;;;25.80;71.70;;;;;;5014653;28;20043;-76
2022/05/17 12:44:20;;;;;;;7.20;1.88;;;25.80;75.10;;;;;;5031221;28;20036;-74
2022/05/17 12:46:49;;;;;;;6.60;2.10;;;26.10;67.10;;;;;;5032079;28;20519;-73
2022/05/17 12:49:19;;;;;;;6.07;2.15;;;26.10;70.00;;;;;;5030904;28;20042;-74
2022/05/17 12:51:58;;;;;;;5.32;1.90;;;26.30;70.30;;;;;;5031437;28;20117;-74
2022/05/17 12:54:27;;;;;;;4.80;2.00;;;26.30;70.50;;;;;;5030361;28;20033;-74
2022/05/17 12:56:53;;;;;;;2.95;1.75;;;26.50;70.90;;;;;;5031744;28;20084;-75
2022/05/17 12:59:45;;;;;;;3.95;1.83;;;26.70;71.90;;;;;;5031107;28;20057;-74
2022/05/17 13:02:10;;;;;;;3.72;2.03;;;26.70;73.00;;;;;;5028767;28;20091;-74
2022/05/17 13:04:37;;;;;;;5.00;2.25;;;26.80;67.20;;;;;;5031308;28;20038;-75
2022/05/17 13:07:16;;;;;;;4.10;2.08;;;26.70;71.50;;;;;;5013683;28;20063;-74
2022/05/17 13:09:58;;;;;;;10.75;2.13;;;26.90;75.20;;;;;;5030752;28;20041;-75
2022/05/17 13:12:28;;;;;;;4.15;2.13;;;27.10;71.60;;;;;;5030928;28;20029;-74
2022/05/17 13:14:54;;;;;;;7.17;2.20;;;27.00;66.80;;;;;;5030536;28;20037;-75
2022/05/17 13:17:32;;;;;;;11.07;2.55;;;27.10;68.30;;;;;;5030571;28;20033;-72
2022/05/17 13:20:28;;;;;;;7.68;3.22;;;27.20;74.30;;;;;;5031613;28;20029;-72